Time;durP1;ratioP1;P1;durP2;ratioP2;P2;SDS_P1;SDS_P2;PMS_P1;PMS_P2;Temp;Humidity;BMP_temperature;BMP_pressure;BME280_temperature;BME280_humidity;BME280_pressure;Samples;Min_cycle;Max_cycle;Signal;HPM_P1;HPM_P2
2023/07/07 00:01:29;;;;;;;6.40;3.22;;;;;;;23.26;58.51;99315.81;4390965;32;33652;-88
2023/07/07 00:03:56;;;;;;;7.20;3.42;;;;;;;23.29;58.35;99320.97;4390904;32;33739;-88
2023/07/07 00:06:24;;;;;;;6.53;3.45;;;;;;;23.19;58.49;99322.25;4395923;32;33817;-89
2023/07/07 00:08:52;;;;;;;6.95;3.80;;;;;;;23.19;58.78;99321.41;4404189;32;34387;-88
2023/07/07 00:11:19;;;;;;;6.53;3.37;;;;;;;23.08;59.17;99319.12;4406262;32;33757;-88
2023/07/07 00:13:47;;;;;;;8.25;3.67;;;;;;;23.00;59.20;99310.62;4406219;32;33395;-89
2023/07/07 00:16:19;;;;;;;11.50;3.58;;;;;;;22.95;59.33;99312.53;4390615;32;33568;-86
2023/07/07 00:18:47;;;;;;;6.62;3.55;;;;;;;23.04;59.24;99312.22;4405665;32;34206;-88
2023/07/07 00:21:15;;;;;;;7.05;4.00;;;;;;;22.71;60.32;99328.31;4405531;32;33790;-89
2023/07/07 00:23:42;;;;;;;7.18;3.87;;;;;;;22.77;60.32;99322.81;4404489;32;34019;-89
2023/07/07 00:26:10;;;;;;;8.15;3.62;;;;;;;22.48;60.75;99320.28;4404120;32;33505;-90
2023/07/07 00:28:37;;;;;;;8.82;3.90;;;;;;;22.18;61.94;99324.81;4405818;32;32990;-89
2023/07/07 00:31:04;;;;;;;7.12;3.65;;;;;;;22.18;61.90;99320.38;4405819;32;33543;-91
2023/07/07 00:33:32;;;;;;;6.55;3.58;;;;;;;22.42;61.14;99323.13;4405836;32;34320;-89
2023/07/07 00:36:00;;;;;;;7.85;3.80;;;;;;;22.57;60.68;99319.97;4404859;32;33820;-90
2023/07/07 00:38:27;;;;;;;7.20;4.05;;;;;;;22.51;61.22;99314.91;4405719;32;32540;-92
2023/07/07 00:40:59;;;;;;;6.20;3.75;;;;;;;22.59;60.83;99323.44;4391739;32;32763;-91
2023/07/07 00:43:26;;;;;;;7.80;4.28;;;;;;;22.76;60.23;99330.78;4391979;32;34838;-91
2023/07/07 00:45:56;;;;;;;6.55;4.05;;;;;;;22.86;60.09;99331.34;4389705;32;33913;-91
2023/07/07 00:48:33;;;;;;;7.07;4.00;;;;;;;22.75;60.46;99332.56;4391867;32;33011;-90
2023/07/07 00:51:11;;;;;;;7.65;3.92;;;;;;;22.74;60.56;99328.22;4391985;32;34641;-88
2023/07/07 00:53:40;;;;;;;7.22;4.32;;;;;;;22.57;61.30;99328.75;4405706;32;34580;-88
2023/07/07 00:56:13;;;;;;;6.82;3.95;;;;;;;22.48;61.44;99328.22;4404039;32;33995;-87
2023/07/07 00:58:42;;;;;;;7.80;4.40;;;;;;;22.81;60.63;99324.44;4391741;32;34433;-88
2023/07/07 01:01:14;;;;;;;6.05;3.55;;;;;;;22.85;60.40;99329.63;4405198;32;33868;-88
2023/07/07 01:03:44;;;;;;;7.07;3.45;;;;;;;22.98;59.92;99320.38;4391734;32;34229;-87
2023/07/07 01:06:15;;;;;;;7.20;3.78;;;;;;;22.82;60.52;99327.94;4390548;32;33946;-91
2023/07/07 01:08:44;;;;;;;10.50;4.25;;;;;;;22.81;60.64;99334.16;4391437;32;34681;-87
2023/07/07 01:11:12;;;;;;;6.78;3.55;;;;;;;22.85;60.37;99332.28;4390310;32;34408;-90
2023/07/07 01:13:41;;;;;;;10.23;3.97;;;;;;;23.04;59.61;99338.69;4379377;32;33097;-89
2023/07/07 01:16:23;;;;;;;8.65;4.07;;;;;;;23.03;59.53;99321.94;4403869;32;34700;-89
2023/07/07 01:19:03;;;;;;;6.78;3.78;;;;;;;22.92;59.82;99321.47;4405339;32;33357;-89
2023/07/07 01:21:40;;;;;;;6.78;3.95;;;;;;;22.93;59.75;99324.97;4391747;32;33088;-89
2023/07/07 01:24:24;;;;;;;6.90;4.05;;;;;;;22.90;60.02;99319.75;4391154;32;35324;-90
2023/07/07 01:27:15;;;;;;;7.30;3.72;;;;;;;22.82;60.02;99333.22;4405295;32;34648;-90
2023/07/07 01:29:56;;;;;;;7.12;3.85;;;;;;;22.90;59.89;99332.97;4391427;32;33368;-87
2023/07/07 01:32:29;;;;;;;6.95;4.07;;;;;;;22.83;59.90;99330.53;4404144;32;33389;-90
2023/07/07 01:34:59;;;;;;;7.07;4.10;;;;;;;22.64;60.62;99328.56;4404070;32;35013;-90
2023/07/07 01:37:26;;;;;;;7.53;3.92;;;;;;;22.58;60.53;99330.50;4391769;32;34665;-90
2023/07/07 01:39:54;;;;;;;6.70;3.58;;;;;;;22.60;60.02;99335.72;4391743;32;33094;-89
2023/07/07 01:42:31;;;;;;;7.75;3.90;;;;;;;22.39;60.33;99339.06;4390542;32;34363;-89
2023/07/07 01:45:17;;;;;;;8.77;3.72;;;;;;;22.34;59.50;99341.88;4391418;32;35058;-87
2023/07/07 01:47:54;;;;;;;8.18;4.20;;;;;;;22.39;59.29;99332.03;4404321;32;35017;-90
2023/07/07 01:50:24;;;;;;;9.35;3.78;;;;;;;22.48;59.12;99336.16;4390985;32;33341;-85
2023/07/07 01:52:55;;;;;;;8.07;4.45;;;;;;;22.25;59.76;99332.47;4390521;32;34571;-87
2023/07/07 01:55:44;;;;;;;7.75;4.30;;;;;;;22.49;59.11;99327.31;4391198;32;34041;-88
2023/07/07 01:58:12;;;;;;;9.10;4.07;;;;;;;22.36;59.79;99334.78;4391144;32;33680;-88
2023/07/07 02:00:42;;;;;;;9.10;4.05;;;;;;;22.36;59.95;99339.19;4375310;32;32656;-87
2023/07/07 02:03:10;;;;;;;8.07;3.90;;;;;;;22.43;59.71;99335.44;4375945;32;33600;-86
2023/07/07 02:06:09;;;;;;;9.00;3.87;;;;;;;22.37;59.61;99335.63;4404227;32;33359;-89
2023/07/07 02:08:37;;;;;;;8.30;4.05;;;;;;;22.48;59.18;99334.38;4404545;32;34757;-90
2023/07/07 02:11:05;;;;;;;9.55;4.45;;;;;;;22.44;59.06;99323.97;4403771;32;33522;-89
2023/07/07 02:13:36;;;;;;;8.15;4.03;;;;;;;22.12;59.78;99331.09;4404690;32;34915;-87
2023/07/07 02:16:04;;;;;;;9.20;4.05;;;;;;;22.12;60.10;99333.72;4404673;32;34009;-87
2023/07/07 02:18:37;;;;;;;6.62;3.62;;;;;;;22.21;59.74;99327.34;4390747;32;32892;-89
2023/07/07 02:21:05;;;;;;;8.38;4.07;;;;;;;22.47;58.79;99324.72;4388752;32;32373;-86
2023/07/07 02:23:32;;;;;;;7.65;3.80;;;;;;;22.49;58.84;99324.66;4390973;32;35121;-88
2023/07/07 02:26:00;;;;;;;8.60;3.95;;;;;;;22.27;59.24;99328.00;4404547;32;34123;-89
2023/07/07 02:28:28;;;;;;;7.78;3.95;;;;;;;22.12;59.76;99331.09;4404364;32;33911;-88
2023/07/07 02:30:56;;;;;;;11.45;4.37;;;;;;;21.85;60.63;99328.41;4386967;32;31988;-87
2023/07/07 02:33:30;;;;;;;8.77;4.55;;;;;;;22.03;60.15;99332.25;4404542;32;33370;-87
2023/07/07 02:36:01;;;;;;;7.05;4.10;;;;;;;21.71;61.21;99335.03;4404123;32;34738;-87
2023/07/07 02:38:29;;;;;;;7.70;4.43;;;;;;;21.85;60.89;99331.03;4378224;32;34268;-87
2023/07/07 02:40:57;;;;;;;9.70;4.00;;;;;;;21.96;60.40;99332.50;4389711;32;34597;-87
2023/07/07 02:43:25;;;;;;;9.02;4.50;;;;;;;22.03;60.49;99334.03;4379829;32;32854;-87
2023/07/07 02:45:53;;;;;;;7.10;4.00;;;;;;;22.01;60.62;99331.47;4406339;32;34146;-88
2023/07/07 02:48:21;;;;;;;7.72;3.65;;;;;;;21.58;61.67;99334.50;4392681;32;34627;-87
2023/07/07 02:50:56;;;;;;;8.90;4.25;;;;;;;21.91;60.80;99337.06;4389893;32;33736;-90
2023/07/07 02:53:25;;;;;;;;;;;;;;;21.96;60.75;99335.12;4406230;32;33832;-86
2023/07/07 02:55:53;;;;;;;6.07;3.80;;;;;;;22.26;59.88;99339.47;4365169;32;33488;-89
2023/07/07 02:58:21;;;;;;;7.37;4.12;;;;;;;22.17;59.98;99341.56;4390107;32;33687;-90
2023/07/07 03:00:49;;;;;;;7.22;4.12;;;;;;;22.02;60.11;99340.25;4377838;32;34904;-88
2023/07/07 03:03:18;;;;;;;6.50;3.45;;;;;;;22.05;59.81;99345.44;4377486;32;34594;-89
2023/07/07 03:05:45;;;;;;;7.50;4.10;;;;;;;22.08;59.69;99355.88;4391369;32;34030;-87
2023/07/07 03:08:13;;;;;;;8.80;4.07;;;;;;;22.08;59.71;99345.31;4397212;32;33437;-89
2023/07/07 03:10:41;;;;;;;6.70;4.22;;;;;;;22.14;59.50;99350.44;4406555;32;34092;-88
2023/07/07 03:13:10;;;;;;;7.75;3.78;;;;;;;22.21;59.23;99357.25;4392829;32;33829;-89
2023/07/07 03:15:41;;;;;;;7.95;3.47;;;;;;;21.99;59.94;99364.09;4392658;32;33557;-89
2023/07/07 03:18:09;;;;;;;7.15;3.53;;;;;;;22.07;59.83;99359.44;4379996;32;34043;-89
2023/07/07 03:20:45;;;;;;;5.85;3.58;;;;;;;21.95;60.11;99360.69;4392849;32;33337;-89
2023/07/07 03:23:13;;;;;;;5.83;3.53;;;;;;;22.10;59.81;99370.75;4406331;32;34257;-88
2023/07/07 03:25:42;;;;;;;8.90;4.15;;;;;;;21.74;60.85;99364.81;4406228;32;34112;-88
2023/07/07 03:28:10;;;;;;;11.23;3.87;;;;;;;21.76;60.88;99373.56;4406057;32;34190;-89
2023/07/07 03:30:38;;;;;;;8.73;4.07;;;;;;;21.84;60.76;99373.31;4392582;32;33563;-88
2023/07/07 03:33:06;;;;;;;7.07;3.80;;;;;;;21.82;60.60;99370.75;4406387;32;33907;-89
2023/07/07 03:35:34;;;;;;;9.68;3.42;;;;;;;21.88;60.11;99374.97;4380094;32;34163;-89
2023/07/07 03:38:02;;;;;;;8.13;4.00;;;;;;;21.95;60.04;99383.56;4406217;32;33921;-89
2023/07/07 03:40:30;;;;;;;6.65;3.70;;;;;;;22.05;59.74;99372.69;4392104;32;33451;-87
2023/07/07 03:42:57;;;;;;;8.02;3.83;;;;;;;22.07;59.53;99381.41;4405849;32;33917;-88
2023/07/07 03:45:25;;;;;;;6.55;3.40;;;;;;;21.89;59.90;99386.38;4392208;32;34620;-89
2023/07/07 03:47:53;;;;;;;7.28;3.80;;;;;;;21.92;59.94;99381.00;4392836;32;33635;-89
2023/07/07 03:50:21;;;;;;;7.72;4.07;;;;;;;21.38;59.24;99388.72;4392299;32;33256;-90
2023/07/07 03:52:50;;;;;;;8.07;4.10;;;;;;;21.10;59.93;99388.56;4406196;32;34627;-88
2023/07/07 03:55:19;;;;;;;7.40;4.50;;;;;;;21.08;60.33;99392.16;4392418;32;33722;-88
2023/07/07 03:57:46;;;;;;;9.48;5.32;;;;;;;21.25;60.21;99394.31;4405847;32;33332;-88
2023/07/07 04:00:14;;;;;;;9.73;4.62;;;;;;;20.94;60.96;99399.53;4406124;32;34567;-89
2023/07/07 04:02:43;;;;;;;12.18;5.70;;;;;;;20.93;61.03;99398.69;4406335;32;33568;-89
2023/07/07 04:05:11;;;;;;;8.25;5.30;;;;;;;20.59;62.01;99403.91;4392490;32;33993;-88
2023/07/07 04:07:39;;;;;;;9.07;5.00;;;;;;;20.47;62.10;99399.78;4392193;32;34639;-89
2023/07/07 04:10:08;;;;;;;13.82;4.68;;;;;;;20.47;62.03;99405.06;4392476;32;33363;-88
2023/07/07 04:12:35;;;;;;;8.40;4.68;;;;;;;20.35;61.74;99410.62;4392189;32;33521;-87
2023/07/07 04:15:03;;;;;;;10.82;5.35;;;;;;;20.76;60.81;99406.13;4405801;32;34193;-88
2023/07/07 04:17:31;;;;;;;8.10;4.18;;;;;;;20.98;59.66;99401.19;4379590;32;32793;-89
2023/07/07 04:20:00;;;;;;;7.93;4.00;;;;;;;21.19;58.18;99400.63;4405862;32;34450;-89
2023/07/07 04:22:30;;;;;;;9.93;4.20;;;;;;;21.19;58.00;99405.91;4405735;32;33773;-89
2023/07/07 04:25:08;;;;;;;8.82;4.28;;;;;;;21.47;56.99;99399.91;4379809;32;33340;-88
2023/07/07 04:27:36;;;;;;;8.93;4.30;;;;;;;21.59;57.11;99418.03;4376680;32;34032;-88
2023/07/07 04:30:04;;;;;;;8.02;4.07;;;;;;;21.93;56.67;99419.69;4389548;32;32685;-88
2023/07/07 04:32:34;;;;;;;8.35;4.47;;;;;;;21.99;55.79;99422.16;4365223;32;33976;-88
2023/07/07 04:35:03;;;;;;;11.95;4.55;;;;;;;22.19;56.26;99414.53;4376956;32;34105;-89
2023/07/07 04:37:32;;;;;;;9.35;4.50;;;;;;;22.03;57.68;99427.31;4364711;32;33461;-89
2023/07/07 04:39:59;;;;;;;10.40;4.53;;;;;;;22.29;57.21;99431.84;4390834;32;33190;-89
2023/07/07 04:42:27;;;;;;;8.73;4.03;;;;;;;22.93;55.00;99425.44;4391757;32;33580;-89
2023/07/07 04:44:54;;;;;;;12.60;4.53;;;;;;;23.21;54.05;99426.19;4392106;32;34109;-89
2023/07/07 04:47:22;;;;;;;8.13;3.87;;;;;;;23.14;54.89;99432.62;4405704;32;33846;-88
2023/07/07 04:49:50;;;;;;;10.50;4.40;;;;;;;23.12;52.96;99417.75;4405611;32;34047;-88
2023/07/07 04:52:17;;;;;;;7.78;4.28;;;;;;;22.55;54.12;99422.22;4405617;32;34345;-90
2023/07/07 04:54:47;;;;;;;7.95;4.20;;;;;;;22.59;54.18;99427.34;4405393;32;33407;-90
2023/07/07 04:57:15;;;;;;;8.95;4.60;;;;;;;22.41;54.34;99427.06;4405429;32;33931;-90
2023/07/07 04:59:42;;;;;;;8.90;4.37;;;;;;;22.45;54.51;99429.56;4392089;32;34178;-90
2023/07/07 05:02:10;;;;;;;8.27;4.28;;;;;;;22.56;54.89;99434.53;4404870;32;33866;-90
2023/07/07 05:04:38;;;;;;;7.78;3.95;;;;;;;22.78;54.24;99432.06;4405674;32;33642;-90
2023/07/07 05:07:06;;;;;;;8.07;4.15;;;;;;;22.64;54.72;99434.28;4405647;32;33920;-90
2023/07/07 05:09:33;;;;;;;9.73;4.22;;;;;;;22.11;56.75;99437.63;4404597;32;34572;-89
2023/07/07 05:12:03;;;;;;;7.03;3.80;;;;;;;21.95;57.16;99434.59;4405176;32;33863;-90
2023/07/07 05:14:30;;;;;;;6.72;4.03;;;;;;;21.75;57.73;99436.94;4374218;32;34729;-89
2023/07/07 05:16:58;;;;;;;8.35;4.22;;;;;;;21.76;57.45;99434.25;4383124;32;32809;-88
2023/07/07 05:19:26;;;;;;;8.63;3.78;;;;;;;22.20;56.41;99437.41;4401450;32;33457;-89
2023/07/07 05:21:54;;;;;;;8.25;4.20;;;;;;;22.55;56.80;99441.59;4374996;32;33379;-87
2023/07/07 05:24:22;;;;;;;7.68;4.12;;;;;;;22.75;57.35;99448.88;4380398;32;33561;-88
2023/07/07 05:26:49;;;;;;;7.55;3.90;;;;;;;22.79;57.69;99450.50;4395957;32;34036;-88
2023/07/07 05:29:17;;;;;;;6.55;4.12;;;;;;;22.82;58.00;99450.41;4405120;32;34223;-87
2023/07/07 05:31:44;;;;;;;9.10;4.60;;;;;;;22.87;57.45;99450.25;4405379;32;33505;-90
2023/07/07 05:34:12;;;;;;;8.20;4.37;;;;;;;22.88;56.35;99453.75;4405439;32;34176;-86
2023/07/07 05:36:40;;;;;;;7.53;4.25;;;;;;;22.97;54.90;99454.34;4405458;32;33936;-87
2023/07/07 05:39:07;;;;;;;11.50;5.05;;;;;;;22.97;54.29;99458.78;4399726;32;33296;-89
2023/07/07 05:41:35;;;;;;;8.38;4.50;;;;;;;22.78;55.40;99456.72;4404955;32;34400;-87
2023/07/07 05:44:03;;;;;;;8.63;4.47;;;;;;;23.54;55.71;99455.91;4390072;32;34106;-87
2023/07/07 05:46:30;;;;;;;7.90;3.97;;;;;;;23.66;55.04;99449.34;4391191;32;33337;-90
2023/07/07 05:48:58;;;;;;;8.50;4.22;;;;;;;23.40;53.77;99444.09;4405063;32;33407;-88
2023/07/07 05:51:25;;;;;;;8.88;4.20;;;;;;;23.79;52.89;99442.69;4405007;32;33997;-86
2023/07/07 05:53:53;;;;;;;8.82;4.43;;;;;;;24.23;53.59;99456.03;4402336;32;34242;-87
2023/07/07 05:56:23;;;;;;;8.05;4.32;;;;;;;24.32;52.56;99451.28;4386638;32;34335;-92
2023/07/07 05:58:52;;;;;;;7.45;4.00;;;;;;;24.12;49.53;99454.72;4391039;32;34403;-87
2023/07/07 06:01:20;;;;;;;9.05;4.22;;;;;;;24.88;45.79;99453.50;4404864;32;34969;-87
2023/07/07 06:03:48;;;;;;;9.45;3.92;;;;;;;25.19;45.00;99450.44;4405012;32;34841;-87
2023/07/07 06:06:15;;;;;;;10.77;4.82;;;;;;;25.23;44.98;99454.72;4404917;32;33505;-87
2023/07/07 06:08:43;;;;;;;15.10;4.57;;;;;;;24.94;46.38;99472.69;4404458;32;33169;-89
2023/07/07 06:11:11;;;;;;;9.70;4.32;;;;;;;24.19;45.18;99467.66;4390771;32;33069;-90
2023/07/07 06:13:38;;;;;;;10.68;4.03;;;;;;;24.61;45.57;99469.59;4404675;32;34219;-86
2023/07/07 06:16:06;;;;;;;7.82;4.18;;;;;;;24.73;45.18;99469.09;4404215;32;33500;-86
2023/07/07 06:18:34;;;;;;;8.73;4.30;;;;;;;24.61;46.37;99474.03;4392783;32;33118;-89
2023/07/07 06:21:02;;;;;;;16.25;4.20;;;;;;;24.03;45.56;99477.13;4406601;32;33640;-90
2023/07/07 06:38:52;;;;;;;10.55;4.28;;;;;;;25.35;41.53;99487.84;4981350;27;20101;-85
2023/07/07 06:41:21;;;;;;;7.15;3.70;;;;;;;25.34;42.49;99484.28;4421798;32;34295;-85
2023/07/07 06:43:49;;;;;;;9.18;4.18;;;;;;;25.43;41.73;99498.97;4395588;32;34179;-85
2023/07/07 06:46:17;;;;;;;8.95;4.68;;;;;;;25.28;41.98;99494.31;4408430;32;34361;-85
2023/07/07 06:48:45;;;;;;;8.85;4.00;;;;;;;25.69;41.84;99490.75;4421624;32;33761;-85
2023/07/07 06:51:12;;;;;;;10.02;4.20;;;;;;;25.67;41.99;99487.28;4421932;32;33446;-83
2023/07/07 06:53:40;;;;;;;8.32;4.25;;;;;;;25.61;42.25;99487.56;4421712;32;34793;-85
2023/07/07 06:56:08;;;;;;;8.82;4.10;;;;;;;26.25;41.16;99488.28;4421723;32;34509;-85
2023/07/07 06:58:36;;;;;;;9.02;3.83;;;;;;;25.83;41.89;99497.25;4407881;32;34714;-85
2023/07/07 07:01:03;;;;;;;9.52;4.20;;;;;;;25.87;42.73;99493.53;4421668;32;34043;-85
2023/07/07 07:03:31;;;;;;;9.40;4.57;;;;;;;26.10;41.67;99495.16;4421696;32;33580;-86
2023/07/07 07:05:59;;;;;;;8.18;4.12;;;;;;;26.75;40.44;99493.03;4421580;32;34611;-86
2023/07/07 07:08:26;;;;;;;10.15;3.70;;;;;;;26.24;41.32;99489.22;4422163;32;33868;-96
2023/07/07 07:10:54;;;;;;;9.25;4.40;;;;;;;26.72;41.27;99493.19;4421790;32;33583;-86
2023/07/07 07:13:21;;;;;;;9.07;3.65;;;;;;;26.56;40.63;99493.94;4421564;32;34031;-86
2023/07/07 07:15:49;;;;;;;9.98;4.10;;;;;;;27.06;40.03;99509.22;4421742;32;34752;-86
2023/07/07 07:18:17;;;;;;;7.28;3.83;;;;;;;27.15;39.51;99506.13;4422166;32;33621;-87
2023/07/07 07:20:49;;;;;;;9.30;3.75;;;;;;;27.08;39.87;99509.12;4407776;32;33127;-85
2023/07/07 07:23:17;;;;;;;7.50;3.30;;;;;;;26.84;40.11;99505.87;4407762;32;34011;-86
2023/07/07 07:25:45;;;;;;;9.00;3.53;;;;;;;26.74;40.81;99509.91;4421323;32;34976;-85
2023/07/07 07:28:13;;;;;;;7.35;3.78;;;;;;;26.69;40.66;99511.00;4421536;32;33769;-87
2023/07/07 07:30:40;;;;;;;10.40;4.60;;;;;;;26.67;39.38;99509.38;4421561;32;33434;-86
2023/07/07 07:33:13;;;;;;;12.07;3.50;;;;;;;26.24;40.19;99510.47;4421720;32;34919;-85
2023/07/07 07:35:41;;;;;;;10.45;3.83;;;;;;;26.33;41.05;99513.59;4421414;32;35045;-87
2023/07/07 07:38:09;;;;;;;7.62;4.00;;;;;;;25.59;41.79;99517.75;4421250;32;34338;-86
2023/07/07 07:40:36;;;;;;;7.18;3.35;;;;;;;25.86;42.96;99524.56;4421505;32;35196;-86
2023/07/07 07:43:05;;;;;;;7.47;3.70;;;;;;;25.78;42.27;99521.37;4421652;32;33759;-86
2023/07/07 07:45:33;;;;;;;7.85;4.12;;;;;;;26.20;42.64;99529.22;4421531;32;34019;-86
2023/07/07 07:48:00;;;;;;;8.27;3.62;;;;;;;26.24;41.81;99526.41;4408019;32;34668;-85
2023/07/07 07:50:28;;;;;;;10.23;4.32;;;;;;;26.31;41.68;99525.22;4421616;32;33136;-87
2023/07/07 07:52:56;;;;;;;12.88;4.03;;;;;;;26.19;40.92;99522.19;4420894;32;33959;-85
2023/07/07 07:55:24;;;;;;;9.45;3.55;;;;;;;26.53;41.17;99528.63;4409654;32;34139;-96
2023/07/07 07:57:52;;;;;;;9.35;3.90;;;;;;;26.74;41.14;99528.53;4421845;32;34326;-86
2023/07/07 08:00:19;;;;;;;9.20;4.03;;;;;;;26.61;41.99;99534.44;4421262;32;34641;-86
2023/07/07 08:02:50;;;;;;;7.18;3.62;;;;;;;27.45;40.55;99532.16;4421358;32;33738;-90
2023/07/07 08:05:18;;;;;;;6.90;3.70;;;;;;;27.28;40.06;99534.81;4421395;32;35012;-87
2023/07/07 08:07:45;;;;;;;7.85;3.90;;;;;;;27.11;39.03;99538.28;4421363;32;34931;-86
2023/07/07 08:10:13;;;;;;;7.47;3.58;;;;;;;26.86;40.12;99533.28;4421466;32;33191;-86
2023/07/07 08:12:41;;;;;;;7.05;3.40;;;;;;;27.48;39.39;99536.47;4419868;32;33512;-85
2023/07/07 08:15:10;;;;;;;9.40;3.83;;;;;;;27.23;38.42;99536.81;4421378;32;34235;-88
2023/07/07 08:17:37;;;;;;;10.32;3.87;;;;;;;26.90;37.74;99540.19;4394719;32;33887;-92
2023/07/07 08:20:05;;;;;;;8.80;4.05;;;;;;;26.65;37.96;99541.34;4421099;32;32599;-91
2023/07/07 08:22:33;;;;;;;7.00;3.47;;;;;;;26.56;38.43;99541.78;4419567;32;33769;-86
2023/07/07 08:25:01;;;;;;;8.05;4.12;;;;;;;26.87;38.78;99535.00;4420434;32;34853;-88
2023/07/07 08:27:28;;;;;;;6.40;3.28;;;;;;;27.05;37.28;99536.78;4415723;32;34101;-88
2023/07/07 08:29:59;;;;;;;7.60;3.45;;;;;;;27.41;38.15;99543.91;4399113;32;33733;-92
2023/07/07 08:32:26;;;;;;;8.38;3.65;;;;;;;27.45;37.63;99537.47;4420603;32;33807;-85
2023/07/07 08:34:54;;;;;;;10.75;3.65;;;;;;;27.26;37.64;99547.31;4420970;32;34239;-94
2023/07/07 08:37:24;;;;;;;7.28;3.75;;;;;;;27.87;38.09;99544.22;4406205;32;33883;-87
2023/07/07 08:39:51;;;;;;;8.25;3.70;;;;;;;28.25;37.52;99536.00;4403966;32;33297;-91
2023/07/07 08:42:29;;;;;;;9.65;4.10;;;;;;;27.80;38.50;99543.66;4405898;32;33522;-89
2023/07/07 08:44:59;;;;;;;11.50;3.90;;;;;;;27.33;37.39;99546.09;4404212;32;34109;-89
2023/07/07 08:47:47;;;;;;;10.23;4.12;;;;;;;26.80;38.59;99552.19;4405511;32;33500;-93
2023/07/07 08:50:26;;;;;;;8.77;3.95;;;;;;;27.07;39.08;99550.84;4404305;32;33462;-93
2023/07/07 08:53:21;;;;;;;10.88;4.65;;;;;;;27.06;38.39;99554.47;4403512;32;33429;-87
2023/07/07 08:56:15;;;;;;;8.52;3.83;;;;;;;27.22;38.72;99559.06;4404624;32;33910;-90
2023/07/07 08:59:14;;;;;;;12.25;4.30;;;;;;;27.02;38.64;99555.53;4405218;32;34722;-85
2023/07/07 09:01:55;;;;;;;7.97;4.10;;;;;;;27.20;37.78;99556.50;4404464;32;33093;-89
2023/07/07 09:04:31;;;;;;;9.48;3.62;;;;;;;27.30;38.10;99563.06;4404237;32;33638;-90
2023/07/07 09:07:26;;;;;;;8.10;3.97;;;;;;;27.34;37.88;99561.09;4405494;32;34177;-92
2023/07/07 09:10:08;;;;;;;8.30;3.60;;;;;;;27.53;37.18;99556.59;4394129;32;33052;-92
2023/07/07 09:12:41;;;;;;;9.15;3.70;;;;;;;27.29;37.78;99568.47;4402549;32;33603;-92
2023/07/07 09:15:29;;;;;;;9.40;3.37;;;;;;;27.07;37.38;99564.16;4404678;32;34068;-86
2023/07/07 09:18:06;;;;;;;7.50;4.18;;;;;;;27.31;39.98;99564.78;4401079;32;34222;-89
2023/07/07 09:20:36;;;;;;;7.68;3.75;;;;;;;27.50;38.86;99567.37;4403889;32;34365;-92
2023/07/07 09:23:08;;;;;;;7.87;4.07;;;;;;;27.56;38.55;99574.22;4405242;32;33558;-92
2023/07/07 09:25:45;;;;;;;8.48;4.03;;;;;;;27.56;36.44;99566.22;4403902;32;34432;-86
2023/07/07 09:28:17;;;;;;;9.68;4.10;;;;;;;27.64;36.61;99570.22;4403911;32;34110;-86
2023/07/07 09:30:52;;;;;;;10.07;4.03;;;;;;;27.98;38.08;99567.66;4403335;32;33896;-84
2023/07/07 09:33:21;;;;;;;8.48;3.80;;;;;;;28.13;35.95;99566.84;4404129;32;33046;-92
2023/07/07 09:36:16;;;;;;;7.57;3.80;;;;;;;28.39;36.35;99554.81;4403883;32;33566;-85
2023/07/07 09:39:12;;;;;;;7.30;3.87;;;;;;;28.09;37.50;99563.47;4403336;32;34169;-89
2023/07/07 09:41:45;;;;;;;9.02;4.10;;;;;;;28.01;36.11;99564.81;4403897;32;32017;-85
2023/07/07 09:44:42;;;;;;;8.02;3.95;;;;;;;27.99;35.97;99572.88;4405344;32;33641;-86
2023/07/07 09:47:31;;;;;;;6.82;3.90;;;;;;;27.85;35.86;99567.44;4405235;32;33523;-90
2023/07/07 09:50:05;;;;;;;10.30;4.60;;;;;;;27.99;36.57;99572.88;4404338;32;35046;-86
2023/07/07 09:52:46;;;;;;;10.05;3.65;;;;;;;27.76;35.62;99571.41;4403479;32;33500;-91
2023/07/07 09:55:18;;;;;;;8.38;4.12;;;;;;;27.60;37.06;99573.13;4403151;32;33316;-93
2023/07/07 09:57:59;;;;;;;7.40;3.78;;;;;;;27.79;35.97;99560.59;4404112;32;34020;-88
2023/07/07 10:00:29;;;;;;;9.85;4.43;;;;;;;27.74;36.26;99573.31;4405890;32;34937;-85
2023/07/07 10:03:27;;;;;;;8.97;4.30;;;;;;;28.05;35.61;99574.37;4404095;32;33612;-87
2023/07/07 10:05:55;;;;;;;9.20;3.78;;;;;;;28.19;36.20;99568.34;4403855;32;33499;-95
2023/07/07 10:08:26;;;;;;;8.20;3.92;;;;;;;28.06;34.49;99570.75;4405120;32;33643;-88
2023/07/07 10:11:25;;;;;;;7.90;4.30;;;;;;;28.16;33.77;99568.50;4405083;32;34731;-86
2023/07/07 10:13:56;;;;;;;7.65;4.20;;;;;;;28.34;32.18;99559.50;4402943;32;34280;-87
2023/07/07 10:16:30;;;;;;;7.72;4.55;;;;;;;28.30;35.69;99568.63;4403633;32;34397;-86
2023/07/07 10:19:10;;;;;;;9.75;4.35;;;;;;;28.30;35.43;99569.47;4404824;32;33976;-87
2023/07/07 10:21:37;;;;;;;9.50;4.35;;;;;;;28.34;34.77;99571.03;4405031;32;34082;-87
2023/07/07 10:24:05;;;;;;;8.02;4.35;;;;;;;28.30;33.64;99564.16;4404595;32;33719;-87
2023/07/07 10:26:33;;;;;;;8.88;4.10;;;;;;;28.54;35.14;99567.31;4404412;32;34128;-86
2023/07/07 10:29:02;;;;;;;9.05;4.43;;;;;;;28.31;33.24;99565.84;4404471;32;34666;-86
2023/07/07 10:31:30;;;;;;;8.77;3.95;;;;;;;28.66;35.55;99570.25;4401403;32;34732;-87
2023/07/07 10:34:01;;;;;;;8.88;4.30;;;;;;;28.57;32.48;99564.47;4403976;32;33492;-85
2023/07/07 10:36:32;;;;;;;7.80;4.25;;;;;;;28.70;31.46;99561.13;4403264;32;34366;-86
2023/07/07 10:39:00;;;;;;;8.52;4.28;;;;;;;28.93;30.60;99566.03;4409058;32;33688;-85
2023/07/07 10:41:28;;;;;;;7.90;4.03;;;;;;;28.46;30.73;99555.34;4419403;32;34003;-88
2023/07/07 10:43:55;;;;;;;10.88;4.32;;;;;;;28.58;31.86;99557.34;4418263;32;34873;-85
2023/07/07 10:46:23;;;;;;;11.15;4.70;;;;;;;28.18;32.56;99550.59;4419217;32;33528;-85
2023/07/07 10:48:55;;;;;;;8.43;4.30;;;;;;;28.36;32.54;99547.78;4405107;32;34029;-86
2023/07/07 10:51:37;;;;;;;7.25;3.95;;;;;;;28.09;36.84;99554.62;4402387;32;92329;-85
2023/07/07 10:54:16;;;;;;;9.43;4.87;;;;;;;28.41;34.90;99544.91;4418763;32;34243;-86
2023/07/07 10:56:49;;;;;;;8.82;4.22;;;;;;;28.47;31.79;99544.56;4419534;32;33138;-88
2023/07/07 10:59:32;;;;;;;11.52;4.55;;;;;;;28.83;33.43;99554.16;4405556;32;33681;-86
2023/07/07 11:02:44;;;;;;;10.38;4.87;;;;;;;28.55;33.93;99547.69;4420989;32;34898;-88
2023/07/07 11:05:44;;;;;;;10.35;4.60;;;;;;;28.35;33.26;99548.75;4378207;32;34222;-87
2023/07/07 11:08:45;;;;;;;;;;;;;;;28.19;31.77;99541.69;4406392;32;33839;-86
2023/07/07 11:11:27;;;;;;;12.02;4.55;;;;;;;28.56;33.44;99549.44;4406249;32;34226;-87
2023/07/07 11:14:04;;;;;;;9.38;4.82;;;;;;;28.72;30.83;99540.56;4402522;32;34177;-87
2023/07/07 11:16:41;;;;;;;9.70;4.60;;;;;;;28.23;32.06;99546.75;4407576;32;33907;-86
2023/07/07 11:19:32;;;;;;;10.88;4.35;;;;;;;28.38;32.57;99546.91;4407328;32;34071;-86
2023/07/07 11:22:22;;;;;;;12.80;4.90;;;;;;;28.55;33.98;99552.16;4408279;32;33975;-87
2023/07/07 11:24:55;;;;;;;8.20;4.20;;;;;;;28.65;34.23;99555.19;4415835;32;35006;-86
2023/07/07 11:27:29;;;;;;;9.68;4.47;;;;;;;28.66;34.03;99552.44;4421510;32;34008;-87
2023/07/07 11:30:11;;;;;;;10.57;4.45;;;;;;;28.80;29.71;99551.66;4421414;32;33494;-88
2023/07/07 11:33:00;;;;;;;9.20;5.03;;;;;;;28.68;30.34;99536.31;4421300;32;33718;-88
2023/07/07 11:35:31;;;;;;;7.32;4.05;;;;;;;29.24;31.08;99550.94;4421236;32;35265;-93
2023/07/07 11:38:15;;;;;;;7.47;4.05;;;;;;;29.32;27.42;99540.69;4407785;32;34716;-87
2023/07/07 11:40:48;;;;;;;8.02;3.90;;;;;;;29.56;27.17;99541.06;4421497;32;33440;-88
2023/07/07 11:43:38;;;;;;;7.10;4.20;;;;;;;29.21;28.77;99533.31;4421147;32;33878;-95
2023/07/07 11:46:33;;;;;;;8.63;3.75;;;;;;;29.33;31.18;99540.59;4407770;32;34205;-87
2023/07/07 11:49:20;;;;;;;7.07;4.05;;;;;;;29.00;32.34;99531.88;4421691;32;33989;-85
2023/07/07 11:51:53;;;;;;;11.20;5.20;;;;;;;29.09;29.30;99537.56;4421018;32;34198;-87
2023/07/07 11:55:01;;;;;;;7.25;3.87;;;;;;;28.62;31.70;99533.06;4421314;32;34851;-95
2023/07/07 11:57:52;;;;;;;9.18;4.28;;;;;;;28.43;31.86;99537.69;4421087;32;33893;-94
2023/07/07 12:00:36;;;;;;;7.80;4.07;;;;;;;28.78;29.38;99532.19;4411322;32;33888;-93
2023/07/07 12:03:20;;;;;;;8.98;4.35;;;;;;;28.10;30.84;99532.34;4407366;32;33671;-91
2023/07/07 12:05:48;;;;;;;9.40;4.55;;;;;;;28.02;33.63;99538.09;4421406;32;34753;-96
2023/07/07 12:08:35;;;;;;;10.68;4.22;;;;;;;28.17;31.87;99525.75;4379793;32;34022;-86
2023/07/07 12:11:06;;;;;;;11.10;4.78;;;;;;;28.11;35.32;99534.94;4423075;32;33207;-90